sensor_id;sensor_type;location;lat;lon;timestamp;P1;durP1;ratioP1;P2;durP2;ratioP2
21339;SDS011;10828;47.064;15.422;2023-07-20T11:22:07;6.65;;;2.60;;
21339;SDS011;10828;47.064;15.422;2023-07-20T11:24:34;5.60;;;2.47;;
21339;SDS011;10828;47.064;15.422;2023-07-20T11:27:01;7.50;;;2.60;;
21339;SDS011;10828;47.064;15.422;2023-07-20T11:30:15;5.00;;;2.35;;
21339;SDS011;10828;47.064;15.422;2023-07-20T11:32:47;6.95;;;2.30;;
21339;SDS011;10828;47.064;15.422;2023-07-20T11:35:13;5.78;;;2.70;;
21339;SDS011;10828;47.064;15.422;2023-07-20T11:37:40;11.50;;;2.72;;
21339;SDS011;10828;47.064;15.422;2023-07-20T11:40:06;4.32;;;2.25;;
21339;SDS011;10828;47.064;15.422;2023-07-20T11:42:34;4.57;;;2.38;;
21339;SDS011;10828;47.064;15.422;2023-07-20T11:45:02;5.85;;;3.00;;
21339;SDS011;10828;47.064;15.422;2023-07-20T11:47:30;7.45;;;2.35;;
21339;SDS011;10828;47.064;15.422;2023-07-20T11:49:55;5.32;;;2.50;;
21339;SDS011;10828;47.064;15.422;2023-07-20T11:52:28;5.65;;;2.33;;
21339;SDS011;10828;47.064;15.422;2023-07-20T11:54:54;5.70;;;2.53;;
21339;SDS011;10828;47.064;15.422;2023-07-20T11:57:19;7.15;;;2.58;;
21339;SDS011;10828;47.064;15.422;2023-07-20T12:02:34;5.40;;;2.50;;
21339;SDS011;10828;47.064;15.422;2023-07-20T12:04:59;4.20;;;2.33;;
21339;SDS011;10828;47.064;15.422;2023-07-20T12:07:28;7.28;;;2.67;;
21339;SDS011;10828;47.064;15.422;2023-07-20T12:10:05;6.65;;;2.50;;
21339;SDS011;10828;47.064;15.422;2023-07-20T12:12:40;6.45;;;2.75;;
21339;SDS011;10828;47.064;15.422;2023-07-20T12:15:16;4.55;;;2.47;;
21339;SDS011;10828;47.064;15.422;2023-07-20T12:17:46;6.07;;;2.75;;
21339;SDS011;10828;47.064;15.422;2023-07-20T12:20:29;6.00;;;2.38;;
21339;SDS011;10828;47.064;15.422;2023-07-20T12:23:11;5.57;;;2.60;;
21339;SDS011;10828;47.064;15.422;2023-07-20T12:25:38;7.13;;;2.30;;
21339;SDS011;10828;47.064;15.422;2023-07-20T12:28:09;4.13;;;2.10;;
21339;SDS011;10828;47.064;15.422;2023-07-20T12:30:39;7.50;;;2.50;;
21339;SDS011;10828;47.064;15.422;2023-07-20T12:33:06;4.68;;;2.60;;
21339;SDS011;10828;47.064;15.422;2023-07-20T12:35:32;7.00;;;2.45;;
21339;SDS011;10828;47.064;15.422;2023-07-20T12:37:58;6.32;;;2.65;;
21339;SDS011;10828;47.064;15.422;2023-07-20T12:40:24;6.10;;;2.60;;
21339;SDS011;10828;47.064;15.422;2023-07-20T12:42:50;11.05;;;2.80;;
21339;SDS011;10828;47.064;15.422;2023-07-20T12:45:16;6.25;;;2.50;;
21339;SDS011;10828;47.064;15.422;2023-07-20T12:47:45;6.15;;;2.60;;
21339;SDS011;10828;47.064;15.422;2023-07-20T12:50:12;8.07;;;2.70;;
21339;SDS011;10828;47.064;15.422;2023-07-20T12:52:39;8.10;;;2.33;;
21339;SDS011;10828;47.064;15.422;2023-07-20T12:55:06;11.50;;;2.78;;
21339;SDS011;10828;47.064;15.422;2023-07-20T12:57:34;7.80;;;2.78;;
21339;SDS011;10828;47.064;15.422;2023-07-20T13:00:01;7.68;;;2.97;;
21339;SDS011;10828;47.064;15.422;2023-07-20T21:12:13;11.33;;;5.13;;
21339;SDS011;10828;47.064;15.422;2023-07-20T21:14:42;12.20;;;4.97;;
21339;SDS011;10828;47.064;15.422;2023-07-20T21:17:09;10.57;;;5.00;;
